sensor_id;sensor_type;location;lat;lon;timestamp;P1;durP1;ratioP1;P2;durP2;ratioP2
25125;SDS011;13106;50.808;5.670;2023-03-12T00:00:29;12.77;;;8.02;;
25125;SDS011;13106;50.808;5.670;2023-03-12T00:02:55;21.75;;;8.05;;
25125;SDS011;13106;50.808;5.670;2023-03-12T00:05:22;16.02;;;8.20;;
25125;SDS011;13106;50.808;5.670;2023-03-12T00:07:50;14.73;;;9.50;;
25125;SDS011;13106;50.808;5.670;2023-03-12T00:10:16;20.27;;;8.30;;
25125;SDS011;13106;50.808;5.670;2023-03-12T00:12:42;19.10;;;8.80;;
25125;SDS011;13106;50.808;5.670;2023-03-12T00:15:08;20.05;;;10.43;;
25125;SDS011;13106;50.808;5.670;2023-03-12T00:17:34;28.70;;;11.65;;
25125;SDS011;13106;50.808;5.670;2023-03-12T00:20:01;27.85;;;11.07;;
25125;SDS011;13106;50.808;5.670;2023-03-12T00:22:27;27.85;;;11.43;;
25125;SDS011;13106;50.808;5.670;2023-03-12T00:24:55;34.58;;;10.68;;
25125;SDS011;13106;50.808;5.670;2023-03-12T00:27:22;27.08;;;10.57;;
25125;SDS011;13106;50.808;5.670;2023-03-12T00:29:48;27.42;;;10.18;;
25125;SDS011;13106;50.808;5.670;2023-03-12T00:32:14;31.05;;;9.70;;
25125;SDS011;13106;50.808;5.670;2023-03-12T00:34:40;38.20;;;10.38;;
25125;SDS011;13106;50.808;5.670;2023-03-12T00:37:06;30.17;;;10.90;;
25125;SDS011;13106;50.808;5.670;2023-03-12T00:39:33;35.35;;;11.20;;
25125;SDS011;13106;50.808;5.670;2023-03-12T00:41:59;36.72;;;9.30;;
25125;SDS011;13106;50.808;5.670;2023-03-12T00:44:25;26.10;;;10.07;;
25125;SDS011;13106;50.808;5.670;2023-03-12T00:46:52;25.05;;;9.68;;
25125;SDS011;13106;50.808;5.670;2023-03-12T00:49:18;23.20;;;9.05;;
25125;SDS011;13106;50.808;5.670;2023-03-12T00:51:44;20.98;;;8.55;;
25125;SDS011;13106;50.808;5.670;2023-03-12T00:54:10;17.80;;;7.93;;
25125;SDS011;13106;50.808;5.670;2023-03-12T00:56:36;22.35;;;9.40;;
25125;SDS011;13106;50.808;5.670;2023-03-12T00:59:04;22.63;;;9.00;;
25125;SDS011;13106;50.808;5.670;2023-03-12T01:01:30;24.08;;;9.15;;
25125;SDS011;13106;50.808;5.670;2023-03-12T01:03:56;21.10;;;10.25;;
25125;SDS011;13106;50.808;5.670;2023-03-12T01:06:24;26.63;;;9.38;;
25125;SDS011;13106;50.808;5.670;2023-03-12T01:08:50;20.33;;;8.90;;
25125;SDS011;13106;50.808;5.670;2023-03-12T01:11:17;23.02;;;10.63;;
25125;SDS011;13106;50.808;5.670;2023-03-12T01:13:43;25.77;;;8.57;;
25125;SDS011;13106;50.808;5.670;2023-03-12T01:16:10;23.63;;;9.02;;
25125;SDS011;13106;50.808;5.670;2023-03-12T01:18:36;20.92;;;8.23;;
25125;SDS011;13106;50.808;5.670;2023-03-12T01:21:02;23.05;;;8.10;;
25125;SDS011;13106;50.808;5.670;2023-03-12T01:23:28;11.43;;;6.80;;
25125;SDS011;13106;50.808;5.670;2023-03-12T01:25:54;22.40;;;7.10;;
25125;SDS011;13106;50.808;5.670;2023-03-12T01:28:21;20.85;;;8.07;;
25125;SDS011;13106;50.808;5.670;2023-03-12T01:30:47;16.88;;;7.90;;
25125;SDS011;13106;50.808;5.670;2023-03-12T01:33:13;18.33;;;8.50;;
25125;SDS011;13106;50.808;5.670;2023-03-12T01:35:40;17.13;;;6.75;;
25125;SDS011;13106;50.808;5.670;2023-03-12T01:38:07;12.68;;;6.30;;
25125;SDS011;13106;50.808;5.670;2023-03-12T01:40:35;10.00;;;6.68;;
25125;SDS011;13106;50.808;5.670;2023-03-12T01:48:37;14.10;;;6.20;;
25125;SDS011;13106;50.808;5.670;2023-03-12T01:51:04;21.63;;;5.90;;
25125;SDS011;13106;50.808;5.670;2023-03-12T01:53:31;15.77;;;6.35;;
25125;SDS011;13106;50.808;5.670;2023-03-12T01:55:58;15.07;;;6.22;;
25125;SDS011;13106;50.808;5.670;2023-03-12T01:58:25;26.95;;;6.78;;
25125;SDS011;13106;50.808;5.670;2023-03-12T02:00:51;17.02;;;5.63;;
25125;SDS011;13106;50.808;5.670;2023-03-12T02:03:18;9.05;;;5.10;;
25125;SDS011;13106;50.808;5.670;2023-03-12T02:08:14;11.57;;;5.45;;
25125;SDS011;13106;50.808;5.670;2023-03-12T02:10:40;12.60;;;5.57;;
25125;SDS011;13106;50.808;5.670;2023-03-12T02:13:06;9.25;;;5.63;;
25125;SDS011;13106;50.808;5.670;2023-03-12T02:15:33;8.52;;;4.68;;
25125;SDS011;13106;50.808;5.670;2023-03-12T02:18:03;11.30;;;5.80;;
25125;SDS011;13106;50.808;5.670;2023-03-12T02:21:06;11.48;;;4.57;;
25125;SDS011;13106;50.808;5.670;2023-03-12T02:23:33;10.77;;;4.50;;
25125;SDS011;13106;50.808;5.670;2023-03-12T02:26:00;8.07;;;3.70;;
25125;SDS011;13106;50.808;5.670;2023-03-12T02:28:27;6.82;;;3.90;;
25125;SDS011;13106;50.808;5.670;2023-03-12T02:30:56;9.85;;;4.60;;
25125;SDS011;13106;50.808;5.670;2023-03-12T02:33:22;6.47;;;4.78;;
25125;SDS011;13106;50.808;5.670;2023-03-12T02:35:48;10.48;;;4.20;;
25125;SDS011;13106;50.808;5.670;2023-03-12T02:40:57;10.57;;;4.50;;
25125;SDS011;13106;50.808;5.670;2023-03-12T02:43:26;13.80;;;5.07;;
25125;SDS011;13106;50.808;5.670;2023-03-12T02:45:52;15.63;;;4.80;;
25125;SDS011;13106;50.808;5.670;2023-03-12T02:48:19;14.68;;;6.72;;
25125;SDS011;13106;50.808;5.670;2023-03-12T02:50:45;12.75;;;5.38;;
25125;SDS011;13106;50.808;5.670;2023-03-12T02:53:11;15.45;;;6.28;;
25125;SDS011;13106;50.808;5.670;2023-03-12T02:55:37;18.27;;;10.00;;
25125;SDS011;13106;50.808;5.670;2023-03-12T02:58:03;15.65;;;6.25;;
25125;SDS011;13106;50.808;5.670;2023-03-12T03:00:29;14.30;;;4.90;;
25125;SDS011;13106;50.808;5.670;2023-03-12T03:02:57;18.08;;;6.07;;
25125;SDS011;13106;50.808;5.670;2023-03-12T03:05:23;12.30;;;4.50;;
25125;SDS011;13106;50.808;5.670;2023-03-12T03:07:49;18.42;;;7.32;;
25125;SDS011;13106;50.808;5.670;2023-03-12T03:10:15;16.80;;;4.70;;
25125;SDS011;13106;50.808;5.670;2023-03-12T03:12:42;12.50;;;4.85;;
25125;SDS011;13106;50.808;5.670;2023-03-12T03:15:08;14.45;;;4.65;;
25125;SDS011;13106;50.808;5.670;2023-03-12T03:17:35;11.90;;;4.80;;
25125;SDS011;13106;50.808;5.670;2023-03-12T03:20:01;15.65;;;5.85;;
25125;SDS011;13106;50.808;5.670;2023-03-12T03:22:31;16.38;;;6.40;;
25125;SDS011;13106;50.808;5.670;2023-03-12T03:24:57;11.50;;;5.10;;
25125;SDS011;13106;50.808;5.670;2023-03-12T03:27:23;14.82;;;5.57;;
25125;SDS011;13106;50.808;5.670;2023-03-12T03:29:49;13.95;;;6.63;;
25125;SDS011;13106;50.808;5.670;2023-03-12T03:32:15;11.15;;;5.60;;
25125;SDS011;13106;50.808;5.670;2023-03-12T03:34:41;13.45;;;4.65;;
25125;SDS011;13106;50.808;5.670;2023-03-12T03:37:07;9.32;;;4.82;;
25125;SDS011;13106;50.808;5.670;2023-03-12T03:39:33;10.27;;;4.90;;
25125;SDS011;13106;50.808;5.670;2023-03-12T03:42:00;7.97;;;4.70;;
25125;SDS011;13106;50.808;5.670;2023-03-12T03:44:26;8.07;;;4.45;;
25125;SDS011;13106;50.808;5.670;2023-03-12T03:46:52;10.63;;;4.82;;
25125;SDS011;13106;50.808;5.670;2023-03-12T03:49:19;7.35;;;4.88;;
25125;SDS011;13106;50.808;5.670;2023-03-12T03:51:45;6.28;;;4.88;;
25125;SDS011;13106;50.808;5.670;2023-03-12T03:54:11;9.63;;;5.20;;
25125;SDS011;13106;50.808;5.670;2023-03-12T03:56:38;8.48;;;5.10;;
25125;SDS011;13106;50.808;5.670;2023-03-12T03:59:04;13.95;;;5.68;;
25125;SDS011;13106;50.808;5.670;2023-03-12T04:01:30;11.52;;;6.60;;
25125;SDS011;13106;50.808;5.670;2023-03-12T04:03:57;10.55;;;5.60;;
25125;SDS011;13106;50.808;5.670;2023-03-12T04:06:23;11.38;;;7.35;;
25125;SDS011;13106;50.808;5.670;2023-03-12T04:08:49;5.75;;;4.88;;
25125;SDS011;13106;50.808;5.670;2023-03-12T04:11:16;10.30;;;5.70;;
25125;SDS011;13106;50.808;5.670;2023-03-12T04:13:42;9.57;;;5.93;;
25125;SDS011;13106;50.808;5.670;2023-03-12T04:16:09;8.45;;;5.28;;
25125;SDS011;13106;50.808;5.670;2023-03-12T04:18:36;10.95;;;6.10;;
25125;SDS011;13106;50.808;5.670;2023-03-12T04:21:03;8.45;;;6.32;;
25125;SDS011;13106;50.808;5.670;2023-03-12T04:23:29;8.45;;;5.32;;
25125;SDS011;13106;50.808;5.670;2023-03-12T04:25:56;9.15;;;5.18;;
25125;SDS011;13106;50.808;5.670;2023-03-12T04:28:22;9.80;;;5.25;;
25125;SDS011;13106;50.808;5.670;2023-03-12T04:30:59;7.00;;;5.20;;
25125;SDS011;13106;50.808;5.670;2023-03-12T04:33:29;6.82;;;5.50;;
25125;SDS011;13106;50.808;5.670;2023-03-12T04:35:55;11.70;;;5.75;;
25125;SDS011;13106;50.808;5.670;2023-03-12T04:38:22;7.53;;;5.47;;
25125;SDS011;13106;50.808;5.670;2023-03-12T04:43:24;7.95;;;4.63;;
25125;SDS011;13106;50.808;5.670;2023-03-12T04:45:50;12.68;;;4.93;;
25125;SDS011;13106;50.808;5.670;2023-03-12T04:48:16;13.20;;;7.15;;
25125;SDS011;13106;50.808;5.670;2023-03-12T04:50:42;27.58;;;7.35;;
25125;SDS011;13106;50.808;5.670;2023-03-12T04:53:09;12.98;;;6.00;;
25125;SDS011;13106;50.808;5.670;2023-03-12T04:55:35;14.43;;;5.80;;
25125;SDS011;13106;50.808;5.670;2023-03-12T04:58:01;18.88;;;6.57;;
25125;SDS011;13106;50.808;5.670;2023-03-12T05:00:27;11.88;;;6.03;;
25125;SDS011;13106;50.808;5.670;2023-03-12T05:02:53;10.73;;;5.40;;
25125;SDS011;13106;50.808;5.670;2023-03-12T05:05:19;14.10;;;6.15;;
25125;SDS011;13106;50.808;5.670;2023-03-12T05:07:45;10.40;;;5.10;;
25125;SDS011;13106;50.808;5.670;2023-03-12T05:10:11;8.15;;;5.10;;
25125;SDS011;13106;50.808;5.670;2023-03-12T05:12:37;7.15;;;5.25;;
25125;SDS011;13106;50.808;5.670;2023-03-12T05:15:03;7.88;;;5.38;;
25125;SDS011;13106;50.808;5.670;2023-03-12T05:17:29;6.10;;;5.15;;
25125;SDS011;13106;50.808;5.670;2023-03-12T05:19:55;10.82;;;5.70;;
25125;SDS011;13106;50.808;5.670;2023-03-12T05:22:21;6.15;;;5.55;;
25125;SDS011;13106;50.808;5.670;2023-03-12T05:24:47;12.82;;;5.95;;
25125;SDS011;13106;50.808;5.670;2023-03-12T05:27:14;6.53;;;5.93;;
25125;SDS011;13106;50.808;5.670;2023-03-12T05:29:40;10.13;;;5.15;;
25125;SDS011;13106;50.808;5.670;2023-03-12T05:32:06;10.48;;;5.70;;
25125;SDS011;13106;50.808;5.670;2023-03-12T05:34:32;10.10;;;6.03;;
25125;SDS011;13106;50.808;5.670;2023-03-12T05:36:58;11.40;;;5.80;;
25125;SDS011;13106;50.808;5.670;2023-03-12T05:39:25;9.27;;;5.97;;
25125;SDS011;13106;50.808;5.670;2023-03-12T05:41:51;7.20;;;5.72;;
25125;SDS011;13106;50.808;5.670;2023-03-12T05:44:21;9.80;;;6.30;;
25125;SDS011;13106;50.808;5.670;2023-03-12T05:46:47;9.73;;;5.82;;
25125;SDS011;13106;50.808;5.670;2023-03-12T05:49:14;8.23;;;6.65;;
25125;SDS011;13106;50.808;5.670;2023-03-12T05:51:40;7.68;;;6.40;;
25125;SDS011;13106;50.808;5.670;2023-03-12T05:54:07;9.48;;;7.43;;
25125;SDS011;13106;50.808;5.670;2023-03-12T05:56:34;7.60;;;6.80;;
25125;SDS011;13106;50.808;5.670;2023-03-12T05:59:00;8.43;;;6.70;;
25125;SDS011;13106;50.808;5.670;2023-03-12T06:01:27;10.02;;;7.88;;
25125;SDS011;13106;50.808;5.670;2023-03-12T06:03:53;10.07;;;6.50;;
25125;SDS011;13106;50.808;5.670;2023-03-12T06:06:19;8.32;;;7.07;;
25125;SDS011;13106;50.808;5.670;2023-03-12T06:08:46;9.32;;;6.05;;
25125;SDS011;13106;50.808;5.670;2023-03-12T06:11:12;9.82;;;6.03;;
25125;SDS011;13106;50.808;5.670;2023-03-12T06:13:38;9.38;;;8.40;;
25125;SDS011;13106;50.808;5.670;2023-03-12T06:16:17;10.77;;;9.50;;
25125;SDS011;13106;50.808;5.670;2023-03-12T06:18:45;12.05;;;10.45;;
25125;SDS011;13106;50.808;5.670;2023-03-12T06:21:12;9.43;;;5.85;;
25125;SDS011;13106;50.808;5.670;2023-03-12T06:23:39;10.65;;;6.45;;
25125;SDS011;13106;50.808;5.670;2023-03-12T06:26:05;8.95;;;8.05;;
25125;SDS011;13106;50.808;5.670;2023-03-12T06:28:31;8.82;;;7.88;;
25125;SDS011;13106;50.808;5.670;2023-03-12T06:30:58;9.60;;;8.70;;
25125;SDS011;13106;50.808;5.670;2023-03-12T06:33:24;11.05;;;10.15;;
25125;SDS011;13106;50.808;5.670;2023-03-12T06:35:54;7.82;;;7.03;;
25125;SDS011;13106;50.808;5.670;2023-03-12T06:38:21;11.55;;;10.48;;
25125;SDS011;13106;50.808;5.670;2023-03-12T06:40:54;13.65;;;12.45;;
25125;SDS011;13106;50.808;5.670;2023-03-12T06:43:20;20.25;;;18.42;;
25125;SDS011;13106;50.808;5.670;2023-03-12T06:45:46;18.48;;;16.90;;
25125;SDS011;13106;50.808;5.670;2023-03-12T06:48:12;16.00;;;14.80;;
25125;SDS011;13106;50.808;5.670;2023-03-12T06:50:38;7.85;;;7.05;;
25125;SDS011;13106;50.808;5.670;2023-03-12T06:53:04;13.15;;;12.00;;
25125;SDS011;13106;50.808;5.670;2023-03-12T06:55:30;10.98;;;9.93;;
25125;SDS011;13106;50.808;5.670;2023-03-12T06:57:56;14.48;;;13.32;;
25125;SDS011;13106;50.808;5.670;2023-03-12T07:00:23;11.15;;;9.93;;
25125;SDS011;13106;50.808;5.670;2023-03-12T07:02:49;18.35;;;17.02;;
25125;SDS011;13106;50.808;5.670;2023-03-12T07:05:15;8.95;;;8.05;;
25125;SDS011;13106;50.808;5.670;2023-03-12T07:07:41;12.45;;;11.27;;
25125;SDS011;13106;50.808;5.670;2023-03-12T07:10:08;12.82;;;11.05;;
25125;SDS011;13106;50.808;5.670;2023-03-12T07:12:35;14.48;;;13.05;;
25125;SDS011;13106;50.808;5.670;2023-03-12T07:15:01;10.00;;;6.10;;
25125;SDS011;13106;50.808;5.670;2023-03-12T07:17:27;8.85;;;6.38;;
25125;SDS011;13106;50.808;5.670;2023-03-12T07:19:53;11.98;;;6.65;;
25125;SDS011;13106;50.808;5.670;2023-03-12T07:22:19;9.20;;;6.15;;
25125;SDS011;13106;50.808;5.670;2023-03-12T07:24:45;12.02;;;6.43;;
25125;SDS011;13106;50.808;5.670;2023-03-12T07:27:11;11.20;;;7.03;;
25125;SDS011;13106;50.808;5.670;2023-03-12T07:29:37;11.15;;;6.80;;
25125;SDS011;13106;50.808;5.670;2023-03-12T07:32:03;10.27;;;6.85;;
25125;SDS011;13106;50.808;5.670;2023-03-12T07:34:29;9.68;;;6.85;;
25125;SDS011;13106;50.808;5.670;2023-03-12T07:36:55;8.48;;;6.32;;
25125;SDS011;13106;50.808;5.670;2023-03-12T07:39:21;11.48;;;7.20;;
25125;SDS011;13106;50.808;5.670;2023-03-12T07:41:48;11.15;;;7.30;;
25125;SDS011;13106;50.808;5.670;2023-03-12T07:44:14;13.27;;;7.80;;
25125;SDS011;13106;50.808;5.670;2023-03-12T07:46:40;13.98;;;8.52;;
25125;SDS011;13106;50.808;5.670;2023-03-12T07:49:06;15.95;;;9.18;;
25125;SDS011;13106;50.808;5.670;2023-03-12T07:51:32;14.02;;;9.23;;
25125;SDS011;13106;50.808;5.670;2023-03-12T07:53:58;13.00;;;9.52;;
25125;SDS011;13106;50.808;5.670;2023-03-12T07:56:24;13.48;;;8.95;;
25125;SDS011;13106;50.808;5.670;2023-03-12T07:58:50;16.63;;;10.77;;
25125;SDS011;13106;50.808;5.670;2023-03-12T08:01:16;16.70;;;11.20;;
25125;SDS011;13106;50.808;5.670;2023-03-12T08:03:43;13.80;;;9.50;;
25125;SDS011;13106;50.808;5.670;2023-03-12T08:06:09;17.05;;;10.45;;
25125;SDS011;13106;50.808;5.670;2023-03-12T08:08:35;12.95;;;9.93;;
25125;SDS011;13106;50.808;5.670;2023-03-12T08:11:05;17.20;;;10.70;;
25125;SDS011;13106;50.808;5.670;2023-03-12T08:13:31;16.92;;;11.07;;
25125;SDS011;13106;50.808;5.670;2023-03-12T08:15:57;18.17;;;10.50;;
25125;SDS011;13106;50.808;5.670;2023-03-12T08:18:23;12.90;;;9.13;;
25125;SDS011;13106;50.808;5.670;2023-03-12T08:20:50;12.27;;;9.02;;
25125;SDS011;13106;50.808;5.670;2023-03-12T08:23:17;11.48;;;8.70;;
25125;SDS011;13106;50.808;5.670;2023-03-12T08:25:46;12.95;;;9.50;;
25125;SDS011;13106;50.808;5.670;2023-03-12T08:28:13;13.13;;;9.37;;
25125;SDS011;13106;50.808;5.670;2023-03-12T08:30:39;13.88;;;8.98;;
25125;SDS011;13106;50.808;5.670;2023-03-12T08:33:09;15.73;;;9.07;;
25125;SDS011;13106;50.808;5.670;2023-03-12T08:35:35;11.68;;;7.88;;
25125;SDS011;13106;50.808;5.670;2023-03-12T08:38:01;11.45;;;8.48;;
25125;SDS011;13106;50.808;5.670;2023-03-12T08:40:27;11.88;;;7.72;;
25125;SDS011;13106;50.808;5.670;2023-03-12T08:42:53;16.35;;;6.38;;
25125;SDS011;13106;50.808;5.670;2023-03-12T08:45:19;17.33;;;7.35;;
25125;SDS011;13106;50.808;5.670;2023-03-12T08:47:45;10.13;;;6.50;;
25125;SDS011;13106;50.808;5.670;2023-03-12T08:50:12;14.52;;;7.15;;
25125;SDS011;13106;50.808;5.670;2023-03-12T08:52:40;11.20;;;6.60;;
25125;SDS011;13106;50.808;5.670;2023-03-12T08:55:06;9.15;;;5.90;;
25125;SDS011;13106;50.808;5.670;2023-03-12T08:57:33;14.10;;;6.35;;
25125;SDS011;13106;50.808;5.670;2023-03-12T08:59:59;13.88;;;6.85;;
25125;SDS011;13106;50.808;5.670;2023-03-12T09:02:25;12.30;;;7.70;;
25125;SDS011;13106;50.808;5.670;2023-03-12T09:04:52;12.27;;;7.05;;
25125;SDS011;13106;50.808;5.670;2023-03-12T09:07:18;12.45;;;7.10;;
25125;SDS011;13106;50.808;5.670;2023-03-12T09:09:46;12.32;;;7.15;;
25125;SDS011;13106;50.808;5.670;2023-03-12T09:12:12;13.75;;;7.10;;
25125;SDS011;13106;50.808;5.670;2023-03-12T09:14:38;13.80;;;7.70;;
25125;SDS011;13106;50.808;5.670;2023-03-12T09:17:04;11.00;;;7.35;;
25125;SDS011;13106;50.808;5.670;2023-03-12T09:19:30;15.05;;;8.13;;
25125;SDS011;13106;50.808;5.670;2023-03-12T09:21:56;11.93;;;6.97;;
25125;SDS011;13106;50.808;5.670;2023-03-12T09:24:22;12.20;;;7.60;;
25125;SDS011;13106;50.808;5.670;2023-03-12T09:26:49;17.77;;;8.50;;
25125;SDS011;13106;50.808;5.670;2023-03-12T09:29:15;18.73;;;8.32;;
25125;SDS011;13106;50.808;5.670;2023-03-12T09:31:41;18.70;;;8.57;;
25125;SDS011;13106;50.808;5.670;2023-03-12T09:34:07;20.27;;;9.38;;
25125;SDS011;13106;50.808;5.670;2023-03-12T09:36:33;19.15;;;9.75;;
25125;SDS011;13106;50.808;5.670;2023-03-12T09:38:59;21.98;;;9.52;;
25125;SDS011;13106;50.808;5.670;2023-03-12T09:41:27;21.17;;;9.98;;
25125;SDS011;13106;50.808;5.670;2023-03-12T09:44:11;20.27;;;9.55;;
25125;SDS011;13106;50.808;5.670;2023-03-12T09:46:49;27.90;;;10.45;;
25125;SDS011;13106;50.808;5.670;2023-03-12T09:51:52;27.90;;;9.40;;
25125;SDS011;13106;50.808;5.670;2023-03-12T09:54:33;23.92;;;10.05;;
25125;SDS011;13106;50.808;5.670;2023-03-12T09:57:02;25.77;;;10.45;;
25125;SDS011;13106;50.808;5.670;2023-03-12T09:59:28;31.50;;;11.23;;
25125;SDS011;13106;50.808;5.670;2023-03-12T10:02:01;26.50;;;10.50;;
25125;SDS011;13106;50.808;5.670;2023-03-12T10:07:11;32.53;;;10.02;;
25125;SDS011;13106;50.808;5.670;2023-03-12T10:19:57;41.10;;;11.05;;
25125;SDS011;13106;50.808;5.670;2023-03-12T10:22:28;29.33;;;10.20;;
25125;SDS011;13106;50.808;5.670;2023-03-12T10:27:29;33.40;;;10.48;;
25125;SDS011;13106;50.808;5.670;2023-03-12T10:29:55;28.42;;;9.73;;
25125;SDS011;13106;50.808;5.670;2023-03-12T10:32:26;26.50;;;10.10;;
25125;SDS011;13106;50.808;5.670;2023-03-12T10:34:55;24.08;;;8.43;;
25125;SDS011;13106;50.808;5.670;2023-03-12T10:37:24;32.03;;;10.02;;
25125;SDS011;13106;50.808;5.670;2023-03-12T10:39:52;29.20;;;8.80;;
25125;SDS011;13106;50.808;5.670;2023-03-12T10:42:21;28.58;;;8.52;;
25125;SDS011;13106;50.808;5.670;2023-03-12T10:44:48;29.10;;;8.55;;
25125;SDS011;13106;50.808;5.670;2023-03-12T10:47:20;31.33;;;8.15;;
25125;SDS011;13106;50.808;5.670;2023-03-12T10:49:50;30.95;;;8.10;;
25125;SDS011;13106;50.808;5.670;2023-03-12T10:52:21;26.25;;;7.93;;
25125;SDS011;13106;50.808;5.670;2023-03-12T10:54:48;31.52;;;7.45;;
25125;SDS011;13106;50.808;5.670;2023-03-12T10:57:17;35.50;;;8.60;;
25125;SDS011;13106;50.808;5.670;2023-03-12T10:59:44;33.45;;;7.57;;
25125;SDS011;13106;50.808;5.670;2023-03-12T11:04:49;30.58;;;7.18;;
25125;SDS011;13106;50.808;5.670;2023-03-12T11:12:33;26.45;;;6.65;;
25125;SDS011;13106;50.808;5.670;2023-03-12T11:15:22;24.95;;;5.97;;
25125;SDS011;13106;50.808;5.670;2023-03-12T11:17:46;28.75;;;6.38;;
25125;SDS011;13106;50.808;5.670;2023-03-12T11:20:17;28.42;;;6.10;;
25125;SDS011;13106;50.808;5.670;2023-03-12T11:22:43;23.80;;;6.60;;
25125;SDS011;13106;50.808;5.670;2023-03-12T11:25:18;18.35;;;5.72;;
25125;SDS011;13106;50.808;5.670;2023-03-12T11:27:45;33.33;;;6.95;;
25125;SDS011;13106;50.808;5.670;2023-03-12T11:30:13;32.45;;;6.38;;
25125;SDS011;13106;50.808;5.670;2023-03-12T11:32:41;25.92;;;5.95;;
25125;SDS011;13106;50.808;5.670;2023-03-12T11:35:08;27.65;;;5.38;;
25125;SDS011;13106;50.808;5.670;2023-03-12T11:55:39;26.58;;;5.68;;
25125;SDS011;13106;50.808;5.670;2023-03-12T12:05:37;24.55;;;5.68;;
25125;SDS011;13106;50.808;5.670;2023-03-12T12:18:43;23.60;;;5.50;;
25125;SDS011;13106;50.808;5.670;2023-03-12T12:28:39;29.75;;;5.40;;
25125;SDS011;13106;50.808;5.670;2023-03-12T12:31:15;26.98;;;4.45;;
25125;SDS011;13106;50.808;5.670;2023-03-12T12:36:11;26.55;;;5.43;;
25125;SDS011;13106;50.808;5.670;2023-03-12T12:38:39;32.83;;;5.22;;
25125;SDS011;13106;50.808;5.670;2023-03-12T12:41:11;25.15;;;5.22;;
25125;SDS011;13106;50.808;5.670;2023-03-12T12:43:40;30.25;;;6.72;;
25125;SDS011;13106;50.808;5.670;2023-03-12T12:46:14;31.60;;;4.82;;
25125;SDS011;13106;50.808;5.670;2023-03-12T12:48:55;28.08;;;7.03;;
25125;SDS011;13106;50.808;5.670;2023-03-12T12:53:50;28.67;;;5.70;;
25125;SDS011;13106;50.808;5.670;2023-03-12T13:01:45;28.75;;;6.88;;
25125;SDS011;13106;50.808;5.670;2023-03-12T13:04:14;26.52;;;7.43;;
25125;SDS011;13106;50.808;5.670;2023-03-12T13:07:00;36.60;;;7.60;;
25125;SDS011;13106;50.808;5.670;2023-03-12T13:09:34;27.30;;;9.15;;
25125;SDS011;13106;50.808;5.670;2023-03-12T13:12:05;27.67;;;10.10;;
25125;SDS011;13106;50.808;5.670;2023-03-12T13:14:36;35.03;;;10.65;;
25125;SDS011;13106;50.808;5.670;2023-03-12T13:17:08;36.05;;;14.05;;
25125;SDS011;13106;50.808;5.670;2023-03-12T13:19:43;30.55;;;8.27;;
25125;SDS011;13106;50.808;5.670;2023-03-12T13:22:16;29.85;;;7.78;;
25125;SDS011;13106;50.808;5.670;2023-03-12T13:24:48;32.33;;;11.18;;
25125;SDS011;13106;50.808;5.670;2023-03-12T13:27:17;26.33;;;6.80;;
25125;SDS011;13106;50.808;5.670;2023-03-12T13:29:45;29.23;;;7.53;;
25125;SDS011;13106;50.808;5.670;2023-03-12T13:34:56;27.20;;;6.95;;
25125;SDS011;13106;50.808;5.670;2023-03-12T13:37:46;35.33;;;7.50;;
25125;SDS011;13106;50.808;5.670;2023-03-12T13:43:05;29.80;;;6.97;;
25125;SDS011;13106;50.808;5.670;2023-03-12T13:48:28;34.92;;;7.10;;
25125;SDS011;13106;50.808;5.670;2023-03-12T13:50:54;34.33;;;7.93;;
25125;SDS011;13106;50.808;5.670;2023-03-12T13:53:23;31.02;;;8.80;;
25125;SDS011;13106;50.808;5.670;2023-03-12T13:59:07;30.63;;;7.03;;
25125;SDS011;13106;50.808;5.670;2023-03-12T14:01:40;21.90;;;6.53;;
25125;SDS011;13106;50.808;5.670;2023-03-12T14:04:10;22.73;;;6.40;;
25125;SDS011;13106;50.808;5.670;2023-03-12T14:06:47;25.65;;;6.55;;
25125;SDS011;13106;50.808;5.670;2023-03-12T14:16:55;22.58;;;5.90;;
25125;SDS011;13106;50.808;5.670;2023-03-12T14:21:48;34.22;;;7.47;;
25125;SDS011;13106;50.808;5.670;2023-03-12T14:24:32;28.52;;;5.60;;
25125;SDS011;13106;50.808;5.670;2023-03-12T14:26:59;23.10;;;3.97;;
25125;SDS011;13106;50.808;5.670;2023-03-12T14:29:41;21.05;;;3.58;;
25125;SDS011;13106;50.808;5.670;2023-03-12T14:32:12;24.20;;;3.92;;
25125;SDS011;13106;50.808;5.670;2023-03-12T14:34:46;22.13;;;4.45;;
25125;SDS011;13106;50.808;5.670;2023-03-12T14:39:48;25.80;;;4.13;;
25125;SDS011;13106;50.808;5.670;2023-03-12T14:42:48;28.77;;;4.30;;
25125;SDS011;13106;50.808;5.670;2023-03-12T14:45:11;18.63;;;4.22;;
25125;SDS011;13106;50.808;5.670;2023-03-12T14:47:39;23.08;;;3.92;;
25125;SDS011;13106;50.808;5.670;2023-03-12T14:50:05;25.42;;;4.35;;
25125;SDS011;13106;50.808;5.670;2023-03-12T14:52:31;28.52;;;5.00;;
25125;SDS011;13106;50.808;5.670;2023-03-12T14:54:59;34.65;;;5.15;;
25125;SDS011;13106;50.808;5.670;2023-03-12T14:57:26;25.50;;;3.78;;
25125;SDS011;13106;50.808;5.670;2023-03-12T14:59:56;30.83;;;4.35;;
25125;SDS011;13106;50.808;5.670;2023-03-12T15:02:22;30.17;;;4.82;;
25125;SDS011;13106;50.808;5.670;2023-03-12T15:04:49;28.05;;;4.30;;
25125;SDS011;13106;50.808;5.670;2023-03-12T15:07:17;31.58;;;5.00;;
25125;SDS011;13106;50.808;5.670;2023-03-12T15:09:45;22.52;;;4.72;;
25125;SDS011;13106;50.808;5.670;2023-03-12T15:12:32;27.70;;;4.13;;
25125;SDS011;13106;50.808;5.670;2023-03-12T15:15:06;31.52;;;4.88;;
25125;SDS011;13106;50.808;5.670;2023-03-12T15:17:33;21.58;;;4.53;;
25125;SDS011;13106;50.808;5.670;2023-03-12T15:20:00;26.55;;;4.25;;
25125;SDS011;13106;50.808;5.670;2023-03-12T15:22:29;26.75;;;5.00;;
25125;SDS011;13106;50.808;5.670;2023-03-12T15:24:55;28.25;;;4.68;;
25125;SDS011;13106;50.808;5.670;2023-03-12T15:29:52;26.52;;;4.63;;
25125;SDS011;13106;50.808;5.670;2023-03-12T15:32:20;21.55;;;3.53;;
25125;SDS011;13106;50.808;5.670;2023-03-12T15:34:48;21.90;;;4.85;;
25125;SDS011;13106;50.808;5.670;2023-03-12T15:39:53;24.17;;;4.68;;
25125;SDS011;13106;50.808;5.670;2023-03-12T15:42:21;24.38;;;4.43;;
25125;SDS011;13106;50.808;5.670;2023-03-12T15:44:52;29.50;;;6.43;;
25125;SDS011;13106;50.808;5.670;2023-03-12T15:47:20;26.20;;;5.90;;
25125;SDS011;13106;50.808;5.670;2023-03-12T15:50:10;20.05;;;3.95;;
25125;SDS011;13106;50.808;5.670;2023-03-12T15:52:33;20.70;;;3.78;;
25125;SDS011;13106;50.808;5.670;2023-03-12T15:57:33;20.65;;;5.05;;
25125;SDS011;13106;50.808;5.670;2023-03-12T16:02:39;31.50;;;4.75;;
25125;SDS011;13106;50.808;5.670;2023-03-12T16:05:05;26.20;;;3.60;;
25125;SDS011;13106;50.808;5.670;2023-03-12T16:07:31;22.85;;;4.07;;
25125;SDS011;13106;50.808;5.670;2023-03-12T16:09:57;23.52;;;3.95;;
25125;SDS011;13106;50.808;5.670;2023-03-12T16:12:23;31.45;;;5.30;;
25125;SDS011;13106;50.808;5.670;2023-03-12T16:14:49;22.95;;;5.10;;
25125;SDS011;13106;50.808;5.670;2023-03-12T16:17:15;24.83;;;4.20;;
25125;SDS011;13106;50.808;5.670;2023-03-12T16:19:42;26.63;;;4.70;;
25125;SDS011;13106;50.808;5.670;2023-03-12T16:22:08;24.42;;;4.57;;
25125;SDS011;13106;50.808;5.670;2023-03-12T16:24:34;31.60;;;5.07;;
25125;SDS011;13106;50.808;5.670;2023-03-12T16:27:00;28.15;;;4.82;;
25125;SDS011;13106;50.808;5.670;2023-03-12T16:29:33;27.27;;;7.78;;
25125;SDS011;13106;50.808;5.670;2023-03-12T16:32:00;26.08;;;4.47;;
25125;SDS011;13106;50.808;5.670;2023-03-12T16:34:26;29.60;;;8.40;;
25125;SDS011;13106;50.808;5.670;2023-03-12T16:36:52;26.83;;;6.50;;
25125;SDS011;13106;50.808;5.670;2023-03-12T16:39:19;23.42;;;6.22;;
25125;SDS011;13106;50.808;5.670;2023-03-12T16:41:45;21.55;;;6.25;;
25125;SDS011;13106;50.808;5.670;2023-03-12T16:44:13;28.52;;;7.10;;
25125;SDS011;13106;50.808;5.670;2023-03-12T16:46:40;22.25;;;8.18;;